Time;durP1;ratioP1;P1;durP2;ratioP2;P2;SDS_P1;SDS_P2;PMS_P1;PMS_P2;Temp;Humidity;BMP_temperature;BMP_pressure;BME280_temperature;BME280_humidity;BME280_pressure;Samples;Min_cycle;Max_cycle;Signal;HPM_P1;HPM_P2
2022/09/06 00:00:43;;;;;;;;;;;13.40;99.90;;;;;;5012007;28;19910;-68
2022/09/06 00:03:10;;;;;;;;;;;13.40;99.90;;;;;;5012139;28;20469;-67
2022/09/06 00:05:37;;;;;;;;;;;13.50;99.90;;;;;;5011948;28;19910;-68
2022/09/06 00:08:05;;;;;;;;;;;13.60;99.90;;;;;;5011953;28;20359;-67
2022/09/06 00:10:32;;;;;;;;;;;13.80;99.90;;;;;;5011762;28;19948;-66
2022/09/06 00:13:00;;;;;;;;;;;13.70;99.90;;;;;;5011295;28;20319;-68
2022/09/06 00:15:27;;;;;;;;;;;13.80;99.90;;;;;;5011697;28;19917;-67
2022/09/06 00:17:54;;;;;;;;;;;13.80;99.90;;;;;;5011611;28;19992;-67
2022/09/06 00:20:21;;;;;;;;;;;13.80;99.90;;;;;;5011795;28;19927;-66
2022/09/06 00:22:47;;;;;;;;;;;13.80;99.90;;;;;;5011770;28;19916;-67
2022/09/06 00:25:14;;;;;;;;;;;13.80;99.90;;;;;;5010630;28;20386;-67
2022/09/06 00:27:41;;;;;;;;;;;13.80;99.90;;;;;;5011425;28;19924;-67
2022/09/06 00:30:08;;;;;;;;;;;13.70;99.90;;;;;;5011593;28;20363;-68
2022/09/06 00:32:34;;;;;;;;;;;13.70;99.90;;;;;;5011260;28;19916;-67
2022/09/06 00:35:01;;;;;;;;;;;13.70;99.90;;;;;;5011650;28;19948;-67
2022/09/06 00:37:28;;;;;;;;;;;13.60;99.90;;;;;;5011640;28;19910;-68
2022/09/06 00:39:54;;;;;;;;;;;13.60;99.90;;;;;;5011322;28;19920;-69
2022/09/06 00:42:21;;;;;;;;;;;13.70;99.90;;;;;;5011442;28;19914;-68
2022/09/06 00:44:48;;;;;;;;;;;13.70;99.90;;;;;;5011370;28;19949;-68
2022/09/06 00:47:16;;;;;;;;;;;13.70;99.90;;;;;;5011332;28;20435;-67
2022/09/06 00:49:47;;;;;;;;;;;13.50;99.90;;;;;;5011195;28;19921;-68
2022/09/06 00:52:14;;;;;;;;;;;13.20;99.90;;;;;;5011397;28;19909;-67
2022/09/06 00:54:42;;;;;;;;;;;13.10;99.90;;;;;;5011316;28;20371;-67
2022/09/06 00:57:08;;;;;;;;;;;13.00;99.90;;;;;;5011378;28;19909;-67
2022/09/06 00:59:36;;;;;;;;;;;13.20;99.90;;;;;;5011053;28;19909;-67
2022/09/06 01:02:04;;;;;;;;;;;13.20;99.90;;;;;;5011258;28;19913;-67
2022/09/06 01:04:31;;;;;;;;;;;13.30;99.90;;;;;;5011127;28;19910;-68
2022/09/06 01:07:13;;;;;;;;;;;13.40;99.90;;;;;;5011057;28;20009;-69
2022/09/06 01:09:52;;;;;;;;;;;13.40;99.90;;;;;;5010806;28;19925;-69
2022/09/06 01:12:26;;;;;;;;;;;13.40;99.90;;;;;;5011044;28;19910;-68
2022/09/06 01:14:52;;;;;;;;;;;13.40;99.90;;;;;;5010804;28;19910;-68
2022/09/06 01:17:31;;;;;;;;;;;13.50;99.90;;;;;;5011104;28;19917;-68
2022/09/06 01:20:08;;;;;;;;;;;13.50;99.90;;;;;;5010680;28;20279;-69
2022/09/06 01:22:59;;;;;;;;;;;13.60;99.90;;;;;;5010980;28;20375;-68
2022/09/06 01:25:34;;;;;;;;;;;13.70;99.90;;;;;;5010940;28;19916;-68
2022/09/06 01:28:23;;;;;;;;;;;13.80;99.90;;;;;;5010831;28;19917;-69
2022/09/06 01:30:53;;;;;;;;;;;13.90;99.90;;;;;;5010676;28;19920;-68
2022/09/06 01:33:24;;;;;;;;;;;14.10;99.90;;;;;;5010877;28;19913;-68
2022/09/06 01:35:54;;;;;;;;;;;14.10;99.90;;;;;;5010498;28;19949;-68
2022/09/06 01:38:21;;;;;;;;;;;14.30;99.90;;;;;;5010477;28;20008;-68
2022/09/06 01:40:47;;;;;;;;;;;14.40;99.90;;;;;;5010791;28;19909;-68
2022/09/06 01:43:23;;;;;;;;;;;14.50;99.90;;;;;;5010751;28;19909;-68
2022/09/06 01:46:01;;;;;;;;;;;14.60;99.90;;;;;;5010344;28;20412;-69
2022/09/06 01:48:30;;;;;;;;;;;14.60;99.90;;;;;;5010500;28;19918;-69
2022/09/06 01:51:12;;;;;;;;;;;14.70;99.90;;;;;;5010611;28;19954;-69
2022/09/06 01:53:48;;;;;;;;;;;14.80;99.90;;;;;;5010393;28;20265;-68
2022/09/06 01:56:15;;;;;;;;;;;14.80;99.90;;;;;;5010516;28;19988;-68
2022/09/06 01:59:16;;;;;;;;;;;14.80;99.90;;;;;;5010406;28;19917;-69
2022/09/06 02:01:50;;;;;;;;;;;14.80;99.90;;;;;;4969365;28;19926;-68
2022/09/06 02:04:26;;;;;;;;;;;14.90;99.90;;;;;;5004172;28;19910;-68
2022/09/06 02:06:57;;;;;;;;;;;15.00;99.90;;;;;;5010152;28;19971;-68
2022/09/06 02:09:25;;;;;;;;;;;15.20;99.90;;;;;;5009571;28;19925;-69
2022/09/06 02:11:56;;;;;;;;;;;15.30;99.90;;;;;;5009734;28;20292;-69
2022/09/06 02:14:43;;;;;;;;;;;15.30;99.90;;;;;;5010254;28;19909;-68
2022/09/06 02:17:12;;;;;;;;;;;15.40;99.90;;;;;;5010280;28;19914;-69
2022/09/06 02:19:43;;;;;;;;;;;15.40;99.90;;;;;;5010016;28;19967;-69
2022/09/06 02:22:11;;;;;;;;;;;15.40;99.90;;;;;;5010147;28;19921;-69
2022/09/06 02:24:41;;;;;;;;;;;15.50;99.90;;;;;;5010098;28;20001;-69
2022/09/06 02:27:08;;;;;;;;;;;15.40;99.90;;;;;;5010086;28;19917;-69
2022/09/06 02:29:34;;;;;;;;;;;15.60;99.90;;;;;;5010027;28;20257;-68
2022/09/06 02:32:12;;;;;;;;;;;15.70;99.90;;;;;;5010002;28;19948;-69
2022/09/06 02:34:39;;;;;;;;;;;15.90;99.90;;;;;;5010052;28;19970;-68
2022/09/06 02:37:06;;;;;;;;;;;15.90;99.90;;;;;;5013414;28;20399;-70
2022/09/06 02:39:33;;;;;;;;;;;15.80;99.90;;;;;;5013402;28;19917;-69
2022/09/06 02:42:01;;;;;;;;;;;15.70;99.90;;;;;;5013507;28;20002;-69
2022/09/06 02:44:27;;;;;;;;;;;15.60;99.90;;;;;;5013282;28;19916;-68
2022/09/06 02:46:54;;;;;;;;;;;15.60;99.90;;;;;;5013267;28;19919;-69
2022/09/06 02:49:21;;;;;;;;;;;15.50;99.90;;;;;;5013000;28;19945;-70
2022/09/06 02:51:47;;;;;;;;;;;15.60;99.90;;;;;;5013002;28;19910;-69
2022/09/06 02:54:14;;;;;;;;;;;15.60;99.90;;;;;;5013166;28;19909;-69
2022/09/06 02:56:41;;;;;;;;;;;15.50;99.90;;;;;;5013201;28;19909;-70
2022/09/06 02:59:08;;;;;;;;;;;15.50;99.90;;;;;;5012860;28;19909;-69
2022/09/06 03:01:34;;;;;;;;;;;15.50;99.90;;;;;;5013036;28;19963;-69
2022/09/06 03:04:01;;;;;;;;;;;15.50;99.90;;;;;;5013061;28;20322;-69
2022/09/06 03:06:28;;;;;;;;;;;15.70;99.90;;;;;;5013031;28;19914;-68
2022/09/06 03:08:55;;;;;;;;;;;15.80;99.90;;;;;;5012539;28;19921;-69
2022/09/06 03:11:21;;;;;;;;;;;16.00;99.90;;;;;;5012833;28;19949;-68
2022/09/06 03:13:49;;;;;;;;;;;16.20;99.90;;;;;;5012264;28;20350;-68
2022/09/06 03:16:16;;;;;;;;;;;16.20;99.90;;;;;;5012684;28;19916;-69
2022/09/06 03:18:43;;;;;;;;;;;16.00;99.90;;;;;;5012802;28;20008;-69
2022/09/06 03:21:10;;;;;;;;;;;15.80;99.90;;;;;;5012727;28;19929;-70
2022/09/06 03:23:38;;;;;;;;;;;15.80;99.90;;;;;;5012523;28;19917;-69
2022/09/06 03:26:05;;;;;;;;;;;15.80;99.90;;;;;;5012578;28;19916;-68
2022/09/06 03:28:32;;;;;;;;;;;15.90;99.90;;;;;;5012364;28;19917;-70
2022/09/06 03:30:59;;;;;;;;;;;16.00;99.90;;;;;;5012480;28;19913;-68
2022/09/06 03:33:26;;;;;;;;;;;16.00;99.90;;;;;;5012608;28;20043;-68
2022/09/06 03:35:54;;;;;;;;;;;16.00;99.90;;;;;;5012225;28;19967;-69
2022/09/06 03:38:22;;;;;;;;;;;16.00;99.90;;;;;;5012494;28;19910;-67
2022/09/06 03:40:48;;;;;;;;;;;16.00;99.90;;;;;;5012335;28;19916;-68
2022/09/06 03:43:16;;;;;;;;;;;15.90;99.90;;;;;;5012177;28;19910;-68
2022/09/06 03:45:47;;;;;;;;;;;16.00;99.90;;;;;;5011851;28;19909;-67
2022/09/06 03:48:13;;;;;;;;;;;16.00;99.90;;;;;;5010791;28;20372;-69
2022/09/06 03:50:47;;;;;;;;;;;15.90;99.90;;;;;;5012257;28;19935;-68
2022/09/06 03:53:14;;;;;;;;;;;15.90;99.90;;;;;;5012041;28;19916;-69
2022/09/06 03:55:43;;;;;;;;;;;15.80;99.90;;;;;;5012010;28;19932;-67
2022/09/06 03:58:10;;;;;;;;;;;15.90;99.90;;;;;;5011908;28;19919;-67
2022/09/06 04:00:37;;;;;;;;;;;15.90;99.90;;;;;;5012102;28;19910;-68
2022/09/06 04:03:04;;;;;;;;;;;15.90;99.90;;;;;;5012068;28;19910;-69
2022/09/06 04:05:30;;;;;;;;;;;15.80;99.90;;;;;;5012046;28;20295;-69
2022/09/06 04:07:57;;;;;;;;;;;15.70;99.90;;;;;;5011722;28;20008;-67
2022/09/06 04:10:24;;;;;;;;;;;15.60;99.90;;;;;;5011769;28;19930;-69
2022/09/06 04:12:50;;;;;;;;;;;15.60;99.90;;;;;;5011948;28;19910;-67
2022/09/06 04:15:17;;;;;;;;;;;15.60;99.90;;;;;;5011847;28;20332;-69
2022/09/06 04:17:47;;;;;;;;;;;15.60;99.90;;;;;;5011680;28;19962;-69
2022/09/06 04:20:14;;;;;;;;;;;15.80;99.90;;;;;;5011810;28;19910;-69
2022/09/06 04:22:45;;;;;;;;;;;15.80;99.90;;;;;;5011036;28;21221;-68
2022/09/06 04:25:12;;;;;;;;;;;15.90;99.90;;;;;;5011756;28;20309;-69
2022/09/06 04:27:39;;;;;;;;;;;15.80;99.90;;;;;;5011464;28;19918;-69
2022/09/06 04:30:06;;;;;;;;;;;15.80;99.90;;;;;;5011676;28;19952;-68
2022/09/06 04:32:33;;;;;;;;;;;15.70;99.90;;;;;;5011665;28;19910;-68
2022/09/06 04:34:59;;;;;;;;;;;15.60;99.90;;;;;;5011727;28;20376;-70
2022/09/06 04:37:26;;;;;;;;;;;15.50;99.90;;;;;;5011634;28;19989;-69
2022/09/06 04:39:53;;;;;;;;;;;15.50;99.90;;;;;;5011337;28;19910;-68
2022/09/06 04:42:19;;;;;;;;;;;15.40;99.90;;;;;;5011384;28;20257;-69
2022/09/06 04:44:46;;;;;;;;;;;15.40;99.90;;;;;;5026433;28;19910;-68
2022/09/06 04:47:14;;;;;;;;;;;15.20;99.90;;;;;;5011328;28;20440;-69
2022/09/06 04:49:41;;;;;;;;;;;15.10;99.90;;;;;;5009957;28;19917;-69
2022/09/06 04:52:08;;;;;;;;;;;15.00;99.90;;;;;;5011374;28;19910;-69
2022/09/06 04:54:35;;;;;;;;;;;15.00;99.90;;;;;;5011228;28;20375;-70
2022/09/06 04:57:02;;;;;;;;;;;15.00;99.90;;;;;;5011354;28;20028;-68
2022/09/06 04:59:29;;;;;;;;;;;15.00;99.90;;;;;;5010730;28;19932;-68
2022/09/06 05:01:55;;;;;;;;;;;15.10;99.90;;;;;;5011087;28;19996;-68
2022/09/06 05:04:22;;;;;;;;;;;15.10;99.90;;;;;;5011030;28;19910;-68
2022/09/06 05:06:49;;;;;;;;;;;15.10;99.90;;;;;;5011118;28;19909;-68
2022/09/06 05:09:16;;;;;;;;;;;15.00;99.90;;;;;;5010803;28;19922;-67
2022/09/06 05:11:43;;;;;;;;;;;15.10;99.90;;;;;;5010718;28;19913;-68
2022/09/06 05:14:10;;;;;;;;;;;15.10;99.90;;;;;;5010800;28;20425;-68
2022/09/06 05:16:37;;;;;;;;;;;15.20;99.90;;;;;;5010935;28;19916;-68
2022/09/06 05:19:03;;;;;;;;;;;15.20;99.90;;;;;;5010872;28;20001;-68
2022/09/06 05:21:30;;;;;;;;;;;15.20;99.90;;;;;;5010854;28;19914;-68
2022/09/06 05:23:57;;;;;;;;;;;15.20;99.90;;;;;;5010597;28;19909;-68
2022/09/06 05:26:24;;;;;;;;;;;15.10;99.90;;;;;;5010703;28;19909;-69
2022/09/06 05:28:50;;;;;;;;;;;15.10;99.90;;;;;;5010585;28;20350;-68
2022/09/06 05:31:26;;;;;;;;;;;15.00;99.90;;;;;;5010820;28;19910;-68
2022/09/06 05:33:53;;;;;;;;;;;15.00;99.90;;;;;;5010714;28;19910;-68
2022/09/06 05:36:22;;;;;;;;;;;15.00;99.90;;;;;;5010738;28;19914;-68
2022/09/06 05:38:52;;;;;;;;;;;15.00;99.90;;;;;;5010812;28;19963;-68
2022/09/06 05:41:22;;;;;;;;;;;15.00;99.90;;;;;;5010752;28;19911;-69
2022/09/06 05:43:48;;;;;;;;;;;15.00;99.90;;;;;;5010445;28;20393;-68
2022/09/06 05:46:16;;;;;;;;;;;15.00;99.90;;;;;;5010624;28;19962;-67
2022/09/06 05:48:42;;;;;;;;;;;15.00;99.90;;;;;;5010536;28;19925;-68
2022/09/06 05:51:13;;;;;;;;;;;15.10;99.90;;;;;;5010716;28;20284;-67
2022/09/06 05:53:41;;;;;;;;;;;15.00;99.90;;;;;;5010326;28;19921;-68
2022/09/06 05:56:10;;;;;;;;;;;15.10;99.90;;;;;;5010433;28;19910;-68
2022/09/06 05:58:37;;;;;;;;;;;15.10;99.90;;;;;;5010409;28;19910;-68
2022/09/06 06:01:13;;;;;;;;;;;15.00;99.90;;;;;;5010580;28;19917;-69
2022/09/06 06:03:40;;;;;;;;;;;15.00;99.90;;;;;;5010315;28;19914;-68
2022/09/06 06:06:07;;;;;;;;;;;14.80;99.90;;;;;;5010389;28;19909;-68
2022/09/06 06:08:34;;;;;;;;;;;14.80;99.90;;;;;;5010193;28;19960;-68
2022/09/06 06:11:01;;;;;;;;;;;14.70;99.90;;;;;;5012206;28;19956;-68
2022/09/06 06:13:28;;;;;;;;;;;14.70;99.90;;;;;;5013848;28;20441;-68
2022/09/06 06:15:55;;;;;;;;;;;14.70;99.90;;;;;;5013690;28;20324;-68
2022/09/06 06:18:22;;;;;;;;;;;14.60;99.90;;;;;;5013989;28;19916;-68
2022/09/06 06:20:49;;;;;;;;;;;14.60;99.90;;;;;;5013743;28;19916;-68
2022/09/06 06:23:16;;;;;;;;;;;14.70;99.90;;;;;;5013723;28;20318;-67
2022/09/06 06:25:42;;;;;;;;;;;14.70;99.90;;;;;;5013453;28;19917;-66
2022/09/06 06:28:09;;;;;;;;;;;14.60;99.90;;;;;;5013523;28;20388;-67
2022/09/06 06:30:36;;;;;;;;;;;14.70;99.90;;;;;;5013679;28;20349;-67
2022/09/06 06:33:02;;;;;;;;;;;14.60;99.90;;;;;;5013590;28;19914;-67
2022/09/06 06:35:29;;;;;;;;;;;14.60;99.90;;;;;;5013534;28;20360;-68
2022/09/06 06:37:56;;;;;;;;;;;14.60;99.90;;;;;;5013206;28;20393;-66
2022/09/06 06:40:22;;;;;;;;;;;14.60;99.90;;;;;;5013333;28;19910;-67
2022/09/06 06:42:49;;;;;;;;;;;14.50;99.90;;;;;;5013272;28;20021;-68
2022/09/06 06:45:16;;;;;;;;;;;14.50;99.90;;;;;;5013488;28;19917;-68
2022/09/06 06:47:43;;;;;;;;;;;14.50;99.90;;;;;;5013064;28;20283;-68
2022/09/06 06:50:09;;;;;;;;;;;14.50;99.90;;;;;;5013148;28;19917;-68
2022/09/06 06:52:36;;;;;;;;;;;14.50;99.90;;;;;;5010387;28;19914;-68
2022/09/06 06:55:04;;;;;;;;;;;14.40;99.90;;;;;;5011221;28;19914;-67
2022/09/06 06:57:33;;;;;;;;;;;14.40;99.90;;;;;;5010910;28;20024;-68
2022/09/06 07:00:00;;;;;;;;;;;14.40;99.90;;;;;;5010905;28;19913;-68
2022/09/06 07:02:27;;;;;;;;;;;14.40;99.90;;;;;;5011085;28;19996;-67
2022/09/06 07:04:54;;;;;;;;;;;14.40;99.90;;;;;;5010528;28;19917;-68
2022/09/06 07:07:20;;;;;;;;;;;14.30;99.90;;;;;;5010915;28;20020;-68
2022/09/06 07:09:48;;;;;;;;;;;14.30;99.90;;;;;;5009192;28;20020;-68
2022/09/06 07:12:14;;;;;;;;;;;14.20;99.90;;;;;;5010585;28;19917;-67
2022/09/06 07:14:41;;;;;;;;;;;14.20;99.90;;;;;;5010751;28;19961;-67
2022/09/06 07:17:07;;;;;;;;;;;14.20;99.90;;;;;;5010748;28;19996;-68
2022/09/06 07:19:34;;;;;;;;;;;14.20;99.90;;;;;;5010764;28;19917;-69
2022/09/06 07:22:01;;;;;;;;;;;14.20;99.90;;;;;;5009725;28;20040;-68
2022/09/06 07:24:28;;;;;;;;;;;14.20;99.90;;;;;;5010084;28;19978;-68
2022/09/06 07:26:54;;;;;;;;;;;14.20;99.90;;;;;;5010390;28;19910;-67
2022/09/06 07:29:21;;;;;;;;;;;14.30;99.90;;;;;;5010346;28;19921;-69
2022/09/06 07:31:48;;;;;;;;;;;14.30;99.90;;;;;;5009905;28;20175;-69
2022/09/06 07:34:16;;;;;;;;;;;14.30;99.90;;;;;;5010347;28;19909;-69
2022/09/06 07:36:43;;;;;;;;;;;14.30;99.90;;;;;;5009570;28;19979;-69
2022/09/06 07:39:09;;;;;;;;;;;14.30;99.90;;;;;;5010611;28;20016;-69
2022/09/06 07:41:36;;;;;;;;;;;14.20;99.90;;;;;;5010136;28;19977;-68
2022/09/06 07:44:03;;;;;;;;;;;14.20;99.90;;;;;;5010025;28;19920;-69
2022/09/06 07:46:29;;;;;;;;;;;14.10;99.90;;;;;;5009855;28;19913;-68
2022/09/06 07:48:56;;;;;;;;;;;14.10;99.90;;;;;;5009701;28;19928;-68
2022/09/06 07:51:23;;;;;;;;;;;14.10;99.90;;;;;;5009590;28;19913;-68
2022/09/06 07:53:56;;;;;;;;;;;14.10;99.90;;;;;;5009831;28;20268;-68
2022/09/06 07:56:23;;;;;;;;;;;14.10;99.90;;;;;;5010010;28;19917;-67
2022/09/06 07:58:51;;;;;;;;;;;14.00;99.90;;;;;;5009341;28;19917;-67
2022/09/06 08:01:18;;;;;;;;;;;14.00;99.90;;;;;;5009770;28;20333;-67
2022/09/06 08:03:45;;;;;;;;;;;13.90;99.90;;;;;;5009705;28;19941;-67
2022/09/06 08:06:12;;;;;;;;;;;13.90;99.90;;;;;;5009296;28;19909;-67
2022/09/06 08:08:39;;;;;;;;;;;13.90;99.90;;;;;;5009586;28;19917;-67
2022/09/06 08:11:06;;;;;;;;;;;13.90;99.90;;;;;;5009488;28;20016;-67
2022/09/06 08:13:36;;;;;;;;;;;13.90;99.90;;;;;;5009649;28;20428;-68
2022/09/06 08:16:08;;;;;;;;;;;13.80;99.90;;;;;;5009713;28;19962;-68
2022/09/06 08:18:35;;;;;;;;;;;13.80;99.90;;;;;;5009831;28;20371;-68
2022/09/06 08:21:12;;;;;;;;;;;13.80;99.90;;;;;;5009114;28;19921;-68
2022/09/06 08:23:42;;;;;;;;;;;13.80;99.90;;;;;;5009250;28;19920;-68
2022/09/06 08:26:09;;;;;;;;;;;13.80;99.90;;;;;;5009450;28;20356;-70
2022/09/06 08:28:36;;;;;;;;;;;13.80;99.90;;;;;;5017193;28;20311;-69
2022/09/06 08:31:07;;;;;;;;;;;13.70;99.90;;;;;;5027839;28;19921;-68
2022/09/06 08:33:35;;;;;;;;;;;13.70;99.90;;;;;;5025514;28;20410;-68
2022/09/06 08:36:02;;;;;;;;;;;13.70;99.90;;;;;;5020044;28;19917;-66
2022/09/06 08:38:29;;;;;;;;;;;13.70;99.90;;;;;;5027133;28;20260;-67
2022/09/06 08:41:06;;;;;;;;;;;13.70;99.90;;;;;;5027628;28;19913;-68
2022/09/06 08:43:33;;;;;;;;;;;13.70;99.90;;;;;;5027697;28;19996;-67
2022/09/06 08:46:00;;;;;;;;;;;13.60;99.90;;;;;;5027279;28;19917;-67
2022/09/06 08:48:29;;;;;;;;;;;13.60;99.90;;;;;;5025874;28;20078;-68
2022/09/06 08:51:12;;;;;;;;;;;13.60;99.90;;;;;;5026656;28;20283;-69
2022/09/06 08:53:41;;;;;;;;;;;13.60;99.90;;;;;;5027485;28;20007;-69
2022/09/06 08:56:14;;;;;;;;;;;13.60;99.90;;;;;;5027475;28;20323;-69
2022/09/06 08:58:47;;;;;;;;;;;13.60;99.90;;;;;;5027062;28;19955;-68
2022/09/06 09:01:17;;;;;;;;;;;13.60;99.90;;;;;;5027414;28;19909;-69
2022/09/06 09:03:45;;;;;;;;;;;13.60;99.90;;;;;;5026710;28;20019;-69
2022/09/06 09:06:11;;;;;;;;;;;13.60;99.90;;;;;;5027277;28;20153;-69
2022/09/06 09:08:43;;;;;;;;;;;13.60;99.90;;;;;;5027719;28;19928;-68
2022/09/06 09:11:20;;;;;;;;;;;13.60;99.90;;;;;;5061292;28;20035;-67
2022/09/06 09:13:46;;;;;;;;;;;13.50;99.90;;;;;;5029331;28;19909;-69
2022/09/06 09:16:14;;;;;;;;;;;13.50;99.90;;;;;;5029267;28;20049;-68
2022/09/06 09:18:45;;;;;;;;;;;13.50;99.90;;;;;;5028277;28;20338;-70
2022/09/06 09:21:13;;;;;;;;;;;13.50;99.90;;;;;;5016527;28;19947;-68
2022/09/06 09:23:40;;;;;;;;;;;13.50;99.90;;;;;;5024144;28;20417;-69
2022/09/06 09:26:10;;;;;;;;;;;13.50;99.90;;;;;;5022875;28;20107;-68
2022/09/06 09:28:36;;;;;;;;;;;13.40;99.90;;;;;;5007504;28;19920;-68
2022/09/06 09:31:03;;;;;;;;;;;13.40;99.90;;;;;;5014059;28;20385;-69
2022/09/06 09:33:34;;;;;;;;;;;13.40;99.90;;;;;;5027308;28;20003;-69
2022/09/06 09:36:04;;;;;;;;;;;13.40;99.90;;;;;;5026915;28;20018;-68
2022/09/06 09:38:34;;;;;;;;;;;13.30;99.90;;;;;;5026947;28;19917;-69
2022/09/06 09:41:06;;;;;;;;;;;13.30;99.90;;;;;;5027239;28;20303;-70
2022/09/06 09:43:35;;;;;;;;;;;13.30;99.90;;;;;;5027047;28;19913;-69
2022/09/06 09:46:12;;;;;;;;;;;13.20;99.90;;;;;;5025698;28;20364;-68
2022/09/06 09:48:40;;;;;;;;;;;13.20;99.90;;;;;;5026982;28;19921;-68
2022/09/06 09:51:21;;;;;;;;;;;13.20;99.90;;;;;;5026812;28;19913;-69
2022/09/06 09:53:51;;;;;;;;;;;13.10;99.90;;;;;;5026778;28;19916;-70
2022/09/06 09:56:19;;;;;;;;;;;13.10;99.90;;;;;;5026267;28;19972;-69
2022/09/06 09:58:46;;;;;;;;;;;13.10;99.90;;;;;;5026973;28;19914;-68
2022/09/06 10:01:20;;;;;;;;;;;13.10;99.90;;;;;;5026967;28;19952;-68
2022/09/06 10:03:47;;;;;;;;;;;13.10;99.90;;;;;;5026772;28;19913;-70
2022/09/06 10:06:14;;;;;;;;;;;13.10;99.90;;;;;;5025997;28;19913;-68
2022/09/06 10:08:42;;;;;;;;;;;13.10;99.90;;;;;;5007566;28;19929;-69
2022/09/06 10:11:13;;;;;;;;;;;13.00;99.90;;;;;;5007552;28;19926;-71
2022/09/06 10:13:41;;;;;;;;;;;13.00;99.90;;;;;;5008263;28;19909;-71
2022/09/06 10:16:09;;;;;;;;;;;13.00;99.90;;;;;;5008181;28;19920;-70
2022/09/06 10:18:43;;;;;;;;;;;13.00;99.90;;;;;;5018501;28;19920;-68
2022/09/06 10:21:14;;;;;;;;;;;13.00;99.90;;;;;;5026610;28;19921;-70
2022/09/06 10:23:59;;;;;;;;;;;13.00;99.90;;;;;;5025454;28;19920;-70
2022/09/06 10:26:32;;;;;;;;;;;13.00;99.90;;;;;;5026756;28;19979;-70
2022/09/06 10:29:10;;;;;;;;;;;13.00;99.90;;;;;;5026918;28;19957;-69
2022/09/06 10:31:37;;;;;;;;;;;13.00;99.90;;;;;;5026409;28;20415;-69
2022/09/06 10:34:09;;;;;;;;;;;12.90;99.90;;;;;;5026630;28;19936;-70
2022/09/06 10:36:54;;;;;;;;;;;13.00;99.90;;;;;;5025661;28;19910;-69
2022/09/06 10:39:21;;;;;;;;;;;13.00;99.90;;;;;;5025824;28;19978;-70
2022/09/06 10:41:50;;;;;;;;;;;12.90;99.90;;;;;;5026061;28;19920;-69
2022/09/06 10:44:31;;;;;;;;;;;12.90;99.90;;;;;;5026590;28;20436;-69
2022/09/06 10:47:02;;;;;;;;;;;12.90;99.90;;;;;;5026104;28;19913;-70
2022/09/06 10:49:30;;;;;;;;;;;12.90;99.90;;;;;;5026082;28;19921;-69
2022/09/06 10:52:01;;;;;;;;;;;12.90;99.90;;;;;;5026143;28;19913;-71
2022/09/06 10:54:30;;;;;;;;;;;12.90;99.90;;;;;;5025866;28;20407;-69
2022/09/06 10:57:01;;;;;;;;;;;13.00;99.90;;;;;;5027812;28;20000;-69
2022/09/06 10:59:30;;;;;;;;;;;13.00;99.90;;;;;;5029570;28;19909;-68
2022/09/06 11:02:02;;;;;;;;;;;13.10;99.90;;;;;;5029079;28;20295;-69
2022/09/06 11:04:33;;;;;;;;;;;13.30;99.90;;;;;;5029578;28;20343;-69
2022/09/06 11:07:01;;;;;;;;;;;13.30;99.90;;;;;;5029470;28;19920;-68
2022/09/06 11:09:40;;;;;;;;;;;13.40;99.90;;;;;;5028125;28;20303;-69
2022/09/06 11:12:15;;;;;;;;;;;13.40;99.90;;;;;;5029343;28;19952;-69
2022/09/06 11:14:42;;;;;;;;;;;13.40;99.90;;;;;;5027752;28;20380;-69
2022/09/06 11:17:11;;;;;;;;;;;13.30;99.90;;;;;;5028951;28;19985;-69
2022/09/06 11:19:43;;;;;;;;;;;13.30;99.90;;;;;;5029264;28;20004;-69
2022/09/06 11:22:22;;;;;;;;;;;13.30;99.90;;;;;;5029724;28;19913;-69
2022/09/06 11:24:51;;;;;;;;;;;13.40;99.90;;;;;;5028715;28;19922;-69
2022/09/06 11:27:47;;;;;;;;;;;13.40;99.90;;;;;;5028984;28;20351;-68
2022/09/06 11:30:15;;;;;;;;;;;13.50;99.90;;;;;;5016190;28;19996;-68
2022/09/06 11:32:49;;;;;;;;;;;13.50;99.90;;;;;;5029188;28;20018;-68
2022/09/06 11:35:23;;;;;;;;;;;13.60;99.90;;;;;;5029244;28;19917;-67
2022/09/06 11:38:00;;;;;;;;;;;13.60;99.90;;;;;;5028050;28;19913;-69
2022/09/06 11:40:40;;;;;;;;;;;13.50;99.90;;;;;;5028725;28;19909;-68
2022/09/06 11:43:09;;;;;;;;;;;13.60;99.90;;;;;;5029128;28;19960;-68
2022/09/06 11:45:49;;;;;;;;;;;13.60;99.90;;;;;;5028911;28;19920;-68
2022/09/06 11:48:34;;;;;;;;;;;13.50;99.90;;;;;;5028578;28;19928;-69
2022/09/06 11:51:05;;;;;;;;;;;13.50;99.90;;;;;;5028951;28;20016;-68
2022/09/06 11:53:54;;;;;;;;;;;13.40;99.90;;;;;;5028260;28;19949;-69
2022/09/06 11:56:24;;;;;;;;;;;13.40;99.90;;;;;;5028738;28;19962;-68
2022/09/06 11:58:53;;;;;;;;;;;13.30;99.90;;;;;;5028891;28;19913;-69
2022/09/06 12:01:19;;;;;;;;;;;13.30;99.90;;;;;;5028991;28;20342;-68
2022/09/06 12:03:46;;;;;;;;;;;13.20;99.90;;;;;;5028495;28;19932;-68
2022/09/06 12:06:20;;;;;;;;;;;13.20;99.90;;;;;;5028845;28;19913;-68
2022/09/06 12:08:48;;;;;;;;;;;13.10;99.90;;;;;;5026257;28;19925;-69
2022/09/06 12:11:21;;;;;;;;;;;13.10;99.90;;;;;;5028483;28;19932;-68
2022/09/06 12:13:53;;;;;;;;;;;13.10;99.90;;;;;;5028594;28;19962;-68
2022/09/06 12:16:20;;;;;;;;;;;13.10;99.90;;;;;;5028652;28;19914;-67
2022/09/06 12:18:47;;;;;;;;;;;13.20;99.90;;;;;;5028653;28;20272;-68
2022/09/06 12:21:31;;;;;;;;;;;13.20;99.90;;;;;;5028282;28;19957;-67
2022/09/06 12:23:59;;;;;;;;;;;13.20;99.90;;;;;;5027820;28;19913;-70
2022/09/06 12:26:46;;;;;;;;;;;13.20;99.90;;;;;;5028231;28;19913;-68
2022/09/06 12:29:12;;;;;;;;;;;13.20;99.90;;;;;;5028463;28;19928;-68
2022/09/06 12:31:41;;;;;;;;;;;13.20;99.90;;;;;;5028313;28;19916;-68
2022/09/06 12:34:10;;;;;;;;;;;13.20;99.90;;;;;;5027941;28;19924;-68
2022/09/06 12:36:46;;;;;;;;;;;13.10;99.90;;;;;;5028206;28;19915;-68
2022/09/06 12:39:13;;;;;;;;;;;13.00;99.90;;;;;;5027761;28;20000;-68
2022/09/06 12:41:41;;;;;;;;;;;13.00;99.90;;;;;;5027834;28;20333;-68
2022/09/06 12:44:08;;;;;;;;;;;12.90;99.90;;;;;;5028243;28;19913;-69
2022/09/06 12:46:35;;;;;;;;;;;13.00;99.90;;;;;;5027569;28;19914;-68
2022/09/06 12:49:09;;;;;;;;;;;12.90;99.90;;;;;;5028019;28;20291;-69
2022/09/06 12:51:37;;;;;;;;;;;12.90;99.90;;;;;;5027988;28;19917;-68
2022/09/06 12:54:19;;;;;;;;;;;12.80;99.90;;;;;;5027620;28;19909;-68
2022/09/06 12:56:45;;;;;;;;;;;12.80;99.90;;;;;;5027492;28;20364;-68
2022/09/06 12:59:23;;;;;;;;;;;12.70;99.90;;;;;;5027065;28;19989;-69
2022/09/06 13:01:57;;;;;;;;;;;12.70;99.90;;;;;;5027611;28;20335;-68
2022/09/06 13:04:32;;;;;;;;;;;12.80;99.90;;;;;;5027881;28;20045;-68
2022/09/06 13:07:00;;;;;;;;;;;12.90;99.90;;;;;;5027481;28;19936;-69
2022/09/06 13:09:28;;;;;;;;;;;12.90;99.90;;;;;;5027606;28;20244;-68
2022/09/06 13:11:59;;;;;;;;;;;12.90;99.90;;;;;;5027086;28;20377;-69
2022/09/06 13:14:27;;;;;;;;;;;12.80;99.90;;;;;;5027686;28;20400;-69
2022/09/06 13:16:58;;;;;;;;;;;12.70;99.90;;;;;;5020539;28;19913;-67
2022/09/06 13:19:31;;;;;;;;;;;12.80;99.90;;;;;;5007878;28;19910;-67
2022/09/06 13:21:58;;;;;;;;;;;12.70;99.90;;;;;;5007301;28;19913;-68
2022/09/06 13:24:27;;;;;;;;;;;12.70;99.90;;;;;;5007871;28;20364;-68
2022/09/06 13:26:53;;;;;;;;;;;12.70;99.90;;;;;;5006453;28;20010;-68
2022/09/06 13:29:31;;;;;;;;;;;12.90;99.90;;;;;;5007435;28;20009;-68
2022/09/06 13:32:00;;;;;;;;;;;12.90;99.90;;;;;;5007649;28;19916;-68
2022/09/06 13:34:28;;;;;;;;;;;12.90;99.90;;;;;;5008380;28;19918;-68
2022/09/06 13:37:03;;;;;;;;;;;13.00;99.90;;;;;;5009302;28;19917;-68
2022/09/06 13:39:31;;;;;;;;;;;13.00;99.90;;;;;;5009520;28;20498;-68
2022/09/06 13:42:09;;;;;;;;;;;13.00;99.90;;;;;;5009331;28;20538;-68
2022/09/06 13:44:37;;;;;;;;;;;12.90;99.90;;;;;;5009631;28;19921;-69
2022/09/06 13:47:04;;;;;;;;;;;12.80;99.90;;;;;;5009364;28;19932;-68
2022/09/06 13:49:31;;;;;;;;;;;12.70;99.90;;;;;;5009423;28;19921;-67
2022/09/06 13:52:00;;;;;;;;;;;12.70;99.90;;;;;;5009322;28;19909;-68
2022/09/06 13:54:27;;;;;;;;;;;12.60;99.90;;;;;;5009363;28;19918;-68
2022/09/06 13:56:54;;;;;;;;;;;12.60;99.90;;;;;;5008970;28;19913;-68
2022/09/06 13:59:22;;;;;;;;;;;12.60;99.90;;;;;;5009468;28;19963;-68
2022/09/06 14:01:59;;;;;;;;;;;12.60;99.90;;;;;;5009253;28;19909;-68
2022/09/06 14:04:26;;;;;;;;;;;12.60;99.90;;;;;;5009553;28;19932;-68
2022/09/06 14:06:53;;;;;;;;;;;12.60;99.90;;;;;;5009180;28;19921;-68
2022/09/06 14:09:20;;;;;;;;;;;12.60;99.90;;;;;;5009078;28;20295;-68
2022/09/06 14:11:47;;;;;;;;;;;12.60;99.90;;;;;;5011312;28;19920;-69
2022/09/06 14:14:13;;;;;;;;;;;12.60;99.90;;;;;;5028831;28;19909;-68
2022/09/06 14:16:40;;;;;;;;;;;12.70;99.90;;;;;;5027604;28;19916;-68
2022/09/06 14:19:07;;;;;;;;;;;12.80;99.90;;;;;;5028811;28;19913;-69
2022/09/06 14:21:33;;;;;;;;;;;12.70;99.90;;;;;;5028755;28;19916;-68
2022/09/06 14:24:00;;;;;;;;;;;12.60;99.90;;;;;;5028865;28;19913;-68
2022/09/06 14:26:27;;;;;;;;;;;12.60;99.90;;;;;;5028256;28;20261;-68
2022/09/06 14:28:54;;;;;;;;;;;12.60;99.90;;;;;;5028643;28;19918;-68